Time;durP1;ratioP1;P1;durP2;ratioP2;P2;SDS_P1;SDS_P2;PMS_P1;PMS_P2;Temp;Humidity;BMP_temperature;BMP_pressure;BME280_temperature;BME280_humidity;BME280_pressure;Samples;Min_cycle;Max_cycle;Signal;HPM_P1;HPM_P2
2022/11/15 00:02:14;;;;;;;;;;;;;;;9.41;49.88;95046.50;5084604;28;20001;-71
2022/11/15 00:04:39;;;;;;;;;;;;;;;9.58;49.11;95039.16;5084447;28;20402;-71
2022/11/15 00:07:05;;;;;;;;;;;;;;;9.30;50.42;95037.19;5079939;28;20596;-70
2022/11/15 00:09:30;;;;;;;;;;;;;;;9.25;50.41;95042.19;5080318;28;19988;-71
2022/11/15 00:11:55;;;;;;;;;;;;;;;8.79;51.66;95044.00;5076634;28;20706;-70
2022/11/15 00:14:20;;;;;;;;;;;;;;;9.35;50.51;95039.25;5081115;28;20648;-70
2022/11/15 00:16:46;;;;;;;;;;;;;;;9.70;49.35;95036.03;5086454;28;19968;-71
2022/11/15 00:19:11;;;;;;;;;;;;;;;9.86;48.32;95034.97;5092783;28;20053;-70
2022/11/15 00:21:36;;;;;;;;;;;;;;;9.85;48.07;95041.28;5085688;28;19992;-71
2022/11/15 00:24:01;;;;;;;;;;;;;;;9.94;48.33;95039.34;5087502;28;19973;-70
2022/11/15 00:26:26;;;;;;;;;;;;;;;10.00;48.13;95037.78;5088461;28;19995;-71
2022/11/15 00:28:52;;;;;;;;;;;;;;;9.72;47.85;95042.78;5088450;28;19972;-71
2022/11/15 00:31:17;;;;;;;;;;;;;;;9.92;48.18;95044.03;5084504;28;20013;-70
2022/11/15 00:33:43;;;;;;;;;;;;;;;9.92;48.37;95036.88;5087095;28;20467;-71
2022/11/15 00:36:09;;;;;;;;;;;;;;;10.01;47.73;95034.94;5065189;28;19998;-70
2022/11/15 00:38:34;;;;;;;;;;;;;;;9.97;47.06;95031.81;5087795;28;19988;-71
2022/11/15 00:41:00;;;;;;;;;;;;;;;10.05;48.08;95032.69;5086394;28;20010;-70
2022/11/15 00:43:25;;;;;;;;;;;;;;;10.24;47.95;95033.97;5089303;28;19991;-70
2022/11/15 00:45:50;;;;;;;;;;;;;;;10.11;46.27;95026.66;5088757;28;20043;-71
2022/11/15 00:48:15;;;;;;;;;;;;;;;10.18;47.77;95027.56;5091213;28;20021;-71
2022/11/15 00:50:40;;;;;;;;;;;;;;;10.29;47.07;95033.38;5090052;28;20045;-71
2022/11/15 00:53:06;;;;;;;;;;;;;;;10.15;47.73;95024.44;5089933;28;19995;-71
2022/11/15 00:55:31;;;;;;;;;;;;;;;10.11;46.15;95013.38;5084719;28;19964;-70
2022/11/15 00:57:56;;;;;;;;;;;;;;;10.37;47.33;95022.59;5076199;28;20020;-70
2022/11/15 01:00:21;;;;;;;;;;;;;;;10.42;48.11;95030.00;5083038;28;20038;-71
2022/11/15 01:02:47;;;;;;;;;;;;;;;10.29;47.63;95026.22;5084753;28;19996;-70
2022/11/15 01:05:12;;;;;;;;;;;;;;;10.41;47.40;95031.03;5085002;28;19988;-70
2022/11/15 01:07:37;;;;;;;;;;;;;;;10.32;47.82;95025.84;5081740;28;19972;-70
2022/11/15 01:10:03;;;;;;;;;;;;;;;10.29;45.86;95033.38;5067551;28;19993;-70
2022/11/15 01:12:28;;;;;;;;;;;;;;;10.30;47.43;95038.50;5090223;28;19964;-70
2022/11/15 01:14:53;;;;;;;;;;;;;;;10.02;48.21;95033.06;5082852;28;20032;-70
2022/11/15 01:17:19;;;;;;;;;;;;;;;10.06;47.00;95029.88;5083605;28;20250;-70
2022/11/15 01:19:44;;;;;;;;;;;;;;;10.06;47.46;95032.53;5084850;28;19971;-70
2022/11/15 01:22:09;;;;;;;;;;;;;;;10.04;47.71;95031.06;5064774;28;20102;-70
2022/11/15 01:24:34;;;;;;;;;;;;;;;9.87;48.90;95026.00;5084680;28;19968;-70
2022/11/15 01:27:00;;;;;;;;;;;;;;;10.03;48.34;95026.75;5084491;28;19964;-70
2022/11/15 01:29:25;;;;;;;;;;;;;;;9.58;49.57;95017.06;5083249;28;19992;-70
2022/11/15 01:31:50;;;;;;;;;;;;;;;9.63;49.41;95020.00;5085245;28;20421;-69
2022/11/15 01:34:15;;;;;;;;;;;;;;;9.65;49.24;95011.84;5067649;28;20462;-70
2022/11/15 01:36:40;;;;;;;;;;;;;;;9.91;48.96;95008.66;5085392;28;20138;-70
2022/11/15 01:39:06;;;;;;;;;;;;;;;9.89;47.11;95012.50;5085126;28;19964;-70
2022/11/15 01:41:31;;;;;;;;;;;;;;;9.91;48.21;95019.28;5084444;28;19981;-70
2022/11/15 01:44:15;;;;;;;;;;;;;;;9.92;47.92;95015.59;5081901;28;19996;-70
2022/11/15 01:46:41;;;;;;;;;;;;;;;9.92;47.07;95007.63;5075413;28;20036;-70
2022/11/15 01:49:11;;;;;;;;;;;;;;;10.03;48.21;95008.94;5065319;28;19996;-69
2022/11/15 01:51:36;;;;;;;;;;;;;;;9.93;48.23;95005.81;5068642;28;19984;-70
2022/11/15 01:54:05;;;;;;;;;;;;;;;9.93;48.20;95008.47;5084716;28;19984;-70
2022/11/15 01:56:31;;;;;;;;;;;;;;;10.05;47.53;95004.31;5084196;28;20151;-70
2022/11/15 01:58:57;;;;;;;;;;;;;;;9.83;47.76;95003.44;5083543;28;19960;-70
2022/11/15 02:01:22;;;;;;;;;;;;;;;10.06;48.21;94995.31;5083346;28;19985;-71
2022/11/15 02:03:50;;;;;;;;;;;;;;;10.10;48.07;94999.25;5063798;28;19984;-69
2022/11/15 02:06:15;;;;;;;;;;;;;;;10.12;48.21;94992.91;5082358;28;20464;-71
2022/11/15 02:08:41;;;;;;;;;;;;;;;10.23;47.84;94997.72;5087026;28;19983;-70
2022/11/15 02:11:09;;;;;;;;;;;;;;;10.32;47.97;94995.75;5068062;28;19980;-71
2022/11/15 02:13:35;;;;;;;;;;;;;;;10.26;47.69;94997.34;5021102;28;1808038;-71
2022/11/15 02:16:19;;;;;;;;;;;;;;;10.33;47.61;94992.06;5085091;28;19972;-70
2022/11/15 02:18:47;;;;;;;;;;;;;;;10.22;47.30;94996.06;5085785;28;19992;-69
2022/11/15 02:21:21;;;;;;;;;;;;;;;10.14;48.16;94989.06;5088988;28;20001;-70
2022/11/15 02:23:52;;;;;;;;;;;;;;;10.16;48.32;94988.88;5085644;28;20512;-70
2022/11/15 02:26:28;;;;;;;;;;;;;;;10.16;45.99;94980.88;5084620;28;20712;-69
2022/11/15 02:29:32;;;;;;;;;;;;;;;10.10;48.48;94974.50;5083105;28;20424;-70
2022/11/15 02:32:00;;;;;;;;;;;;;;;9.96;48.32;94974.31;5022216;28;20459;-70
2022/11/15 02:34:36;;;;;;;;;;;;;;;9.99;48.76;94973.13;5023492;28;20249;-71
2022/11/15 02:37:11;;;;;;;;;;;;;;;10.17;47.69;94977.22;5037923;28;19984;-71
2022/11/15 02:39:41;;;;;;;;;;;;;;;10.19;48.54;94976.00;5085970;28;20536;-71
2022/11/15 02:43:56;;;;;;;;;;;;;;;10.08;48.57;94979.16;5068533;28;20004;-71
2022/11/15 02:44:52;;;;;;;;;;;;;;;8.93;52.19;94977.81;5084535;28;19999;-71
2022/11/15 02:47:17;;;;;;;;;;;;;;;9.44;49.90;94970.91;5069652;28;19976;-70
2022/11/15 02:49:55;;;;;;;;;;;;;;;9.42;50.69;94970.28;5077501;28;19989;-70
2022/11/15 02:52:20;;;;;;;;;;;;;;;9.70;48.99;94972.22;5068574;28;19976;-70
2022/11/15 02:54:55;;;;;;;;;;;;;;;9.70;49.23;94961.59;5065488;28;20550;-69
2022/11/15 02:57:35;;;;;;;;;;;;;;;9.69;50.34;94959.97;5085587;28;20036;-70
2022/11/15 03:00:14;;;;;;;;;;;;;;;9.33;51.19;94958.94;5087450;28;19964;-70
2022/11/15 03:02:45;;;;;;;;;;;;;;;9.16;51.88;94953.00;5064026;28;20145;-70
2022/11/15 03:05:10;;;;;;;;;;;;;;;9.56;50.89;94956.13;5068745;28;20041;-71
2022/11/15 03:07:41;;;;;;;;;;;;;;;9.81;49.55;94953.13;5085854;28;19972;-71
2022/11/15 03:10:08;;;;;;;;;;;;;;;9.91;49.49;94949.31;5067439;28;20002;-70
2022/11/15 03:12:40;;;;;;;;;;;;;;;9.17;51.14;94941.38;5065931;28;19991;-71
2022/11/15 03:15:06;;;;;;;;;;;;;;;9.53;49.22;94935.25;5068999;28;20266;-69
2022/11/15 03:17:38;;;;;;;;;;;;;;;9.01;52.25;94942.41;5067068;28;19985;-71
2022/11/15 03:20:04;;;;;;;;;;;;;;;8.75;51.93;94941.84;5068089;28;19977;-70
2022/11/15 03:22:35;;;;;;;;;;;;;;;8.84;52.00;94947.88;5066926;28;20011;-70
2022/11/15 03:25:01;;;;;;;;;;;;;;;9.44;50.69;94945.19;5082421;28;19989;-69
2022/11/15 03:27:27;;;;;;;;;;;;;;;9.63;48.94;94940.28;5085198;28;19975;-70
2022/11/15 03:29:54;;;;;;;;;;;;;;;9.77;49.44;94946.53;5068596;28;20079;-69
2022/11/15 03:32:20;;;;;;;;;;;;;;;9.84;48.63;94939.47;5064121;28;20070;-69
2022/11/15 03:34:52;;;;;;;;;;;;;;;9.65;49.82;94938.22;5068455;28;20373;-69
2022/11/15 03:37:17;;;;;;;;;;;;;;;9.54;50.15;94942.22;5085134;28;20379;-71
2022/11/15 03:39:42;;;;;;;;;;;;;;;8.95;52.04;94936.00;5082562;28;20075;-70
2022/11/15 03:42:07;;;;;;;;;;;;;;;9.33;50.93;94935.88;5063736;28;20140;-71
2022/11/15 03:44:36;;;;;;;;;;;;;;;9.51;48.82;94934.63;5086735;28;19973;-70
2022/11/15 03:47:24;;;;;;;;;;;;;;;9.80;49.69;94946.13;5084634;28;19971;-69
2022/11/15 03:49:53;;;;;;;;;;;;;;;9.58;50.37;94938.16;5070549;28;20471;-71
2022/11/15 03:52:19;;;;;;;;;;;;;;;8.98;51.99;94938.31;5086656;28;19987;-70
2022/11/15 03:54:48;;;;;;;;;;;;;;;9.56;50.29;94936.72;5073563;28;20410;-70
2022/11/15 03:57:13;;;;;;;;;;;;;;;9.13;51.68;94942.75;5087684;28;20043;-70
2022/11/15 03:59:38;;;;;;;;;;;;;;;9.53;50.67;94937.94;5089752;28;19976;-71
2022/11/15 04:02:03;;;;;;;;;;;;;;;9.44;50.98;94942.53;5070668;28;20471;-70
2022/11/15 04:04:29;;;;;;;;;;;;;;;9.51;50.24;94945.25;5088695;28;19998;-71
2022/11/15 04:06:54;;;;;;;;;;;;;;;9.73;50.29;94945.28;5091987;28;19975;-70
2022/11/15 04:09:19;;;;;;;;;;;;;;;9.39;50.17;94941.44;5075025;28;19988;-70
2022/11/15 04:11:44;;;;;;;;;;;;;;;9.66;49.39;94939.06;5088567;28;20075;-70
2022/11/15 04:14:09;;;;;;;;;;;;;;;9.58;50.40;94932.03;5093577;28;20036;-71
2022/11/15 04:16:35;;;;;;;;;;;;;;;9.63;50.28;94939.44;5091183;28;19981;-70
2022/11/15 04:24:28;;;;;;;;;;;;;;;9.70;50.51;94946.47;5085974;28;19991;-70
2022/11/15 04:26:53;;;;;;;;;;;;;;;9.64;49.66;94941.06;5090522;28;20472;-69
2022/11/15 04:29:34;;;;;;;;;;;;;;;9.13;51.77;94945.41;5089876;28;20574;-69
2022/11/15 04:31:59;;;;;;;;;;;;;;;9.27;51.80;94935.78;5091610;28;19979;-70
2022/11/15 04:34:24;;;;;;;;;;;;;;;8.64;52.87;94939.66;5087842;28;19996;-69
2022/11/15 04:39:33;;;;;;;;;;;;;;;9.30;50.16;94925.63;5089660;28;19975;-69
2022/11/15 04:41:58;;;;;;;;;;;;;;;9.42;50.99;94927.78;5089650;28;19988;-70
2022/11/15 04:44:23;;;;;;;;;;;;;;;9.63;50.58;94926.16;5090408;28;20233;-71
2022/11/15 04:46:49;;;;;;;;;;;;;;;9.73;49.98;94929.31;5095517;28;20467;-70
2022/11/15 04:49:14;;;;;;;;;;;;;;;9.87;50.07;94932.09;5088507;28;19988;-71
2022/11/15 04:51:39;;;;;;;;;;;;;;;9.87;49.73;94935.59;5072495;28;19995;-69
2022/11/15 04:54:04;;;;;;;;;;;;;;;9.80;49.60;94930.19;5072034;28;19988;-71
2022/11/15 04:56:30;;;;;;;;;;;;;;;9.86;49.88;94933.94;5087796;28;20015;-70
2022/11/15 04:58:55;;;;;;;;;;;;;;;9.54;50.33;94931.59;5090795;28;20439;-70
2022/11/15 05:01:20;;;;;;;;;;;;;;;9.45;50.71;94925.56;5090011;28;20425;-69
2022/11/15 05:06:30;;;;;;;;;;;;;;;9.71;50.05;94920.72;5087052;28;19996;-71
2022/11/15 05:08:55;;;;;;;;;;;;;;;9.85;48.43;94922.50;5085906;28;19988;-70
2022/11/15 05:11:20;;;;;;;;;;;;;;;9.35;50.58;94918.91;5088779;28;20019;-69
2022/11/15 05:13:46;;;;;;;;;;;;;;;9.67;49.71;94930.06;5089985;28;19996;-71
2022/11/15 05:16:11;;;;;;;;;;;;;;;9.60;49.16;94930.00;5071267;28;20239;-69
2022/11/15 05:18:36;;;;;;;;;;;;;;;10.00;48.99;94931.41;5086478;28;19988;-69
2022/11/15 05:21:08;;;;;;;;;;;;;;;9.79;48.98;94939.19;5087043;28;19992;-69
2022/11/15 05:23:33;;;;;;;;;;;;;;;9.89;48.82;94938.06;5087926;28;20000;-71
2022/11/15 05:25:59;;;;;;;;;;;;;;;9.18;50.53;94932.41;5088049;28;20345;-71
2022/11/15 05:28:24;;;;;;;;;;;;;;;9.45;49.32;94933.53;5089754;28;20049;-69
2022/11/15 05:30:49;;;;;;;;;;;;;;;9.69;47.19;94934.19;5083426;28;20031;-71
2022/11/15 05:33:15;;;;;;;;;;;;;;;9.53;47.76;94931.78;5085359;28;20387;-70
2022/11/15 05:35:41;;;;;;;;;;;;;;;9.67;49.33;94936.22;5088634;28;19976;-70
2022/11/15 05:38:06;;;;;;;;;;;;;;;9.69;49.16;94934.19;5087879;28;20118;-68
2022/11/15 05:40:31;;;;;;;;;;;;;;;9.68;49.33;94931.72;5070451;28;20495;-71
2022/11/15 05:42:57;;;;;;;;;;;;;;;9.18;50.19;94927.09;5068995;28;19996;-70
2022/11/15 05:45:22;;;;;;;;;;;;;;;9.43;48.99;94922.28;5086841;28;20456;-69
2022/11/15 05:47:47;;;;;;;;;;;;;;;9.60;48.77;94919.38;5087968;28;19968;-71
2022/11/15 05:50:13;;;;;;;;;;;;;;;9.59;49.01;94923.06;5086537;28;19998;-70
2022/11/15 05:52:38;;;;;;;;;;;;;;;9.60;48.28;94924.69;5085365;28;19976;-70
2022/11/15 05:55:04;;;;;;;;;;;;;;;9.52;48.16;94919.50;5068265;28;19964;-70
2022/11/15 05:57:29;;;;;;;;;;;;;;;8.98;49.58;94919.72;5065831;28;19992;-70
2022/11/15 05:59:54;;;;;;;;;;;;;;;9.27;49.83;94919.84;5087569;28;19972;-70
2022/11/15 06:02:19;;;;;;;;;;;;;;;9.30;49.10;94922.94;5066807;28;20087;-71
2022/11/15 06:04:45;;;;;;;;;;;;;;;9.18;49.67;94921.78;5086243;28;20008;-71
2022/11/15 06:07:10;;;;;;;;;;;;;;;8.85;50.52;94928.31;5086101;28;19983;-71
2022/11/15 06:09:35;;;;;;;;;;;;;;;8.15;52.32;94925.84;5087009;28;19988;-69
2022/11/15 06:12:00;;;;;;;;;;;;;;;8.59;50.75;94926.09;5086547;28;19972;-69
2022/11/15 06:14:25;;;;;;;;;;;;;;;8.54;50.11;94924.81;5068111;28;20173;-72
2022/11/15 06:16:51;;;;;;;;;;;;;;;8.74;49.06;94924.25;5082633;28;19987;-70
2022/11/15 06:19:16;;;;;;;;;;;;;;;8.91;49.69;94929.41;5086903;28;20334;-69
2022/11/15 06:21:41;;;;;;;;;;;;;;;8.92;49.31;94918.59;5087242;28;19996;-71
2022/11/15 06:24:07;;;;;;;;;;;;;;;8.78;49.23;94919.41;5086986;28;20547;-70
2022/11/15 06:26:32;;;;;;;;;;;;;;;8.92;49.72;94918.59;5088430;28;19997;-70
2022/11/15 06:28:57;;;;;;;;;;;;;;;8.57;49.55;94911.19;5085848;28;19976;-69
2022/11/15 06:31:22;;;;;;;;;;;;;;;8.63;49.42;94919.41;5086043;28;19969;-71
2022/11/15 06:33:49;;;;;;;;;;;;;;;8.45;50.46;94928.56;5086105;28;20455;-70
2022/11/15 06:36:16;;;;;;;;;;;;;;;8.63;50.20;94928.19;5085202;28;20359;-71
2022/11/15 06:38:41;;;;;;;;;;;;;;;8.33;51.09;94924.72;5067577;28;20500;-70
2022/11/15 06:41:07;;;;;;;;;;;;;;;8.38;50.54;94927.63;5085359;28;19989;-70
2022/11/15 06:43:32;;;;;;;;;;;;;;;7.39;54.36;94930.84;5088963;28;20258;-70
2022/11/15 06:45:58;;;;;;;;;;;;;;;8.16;51.97;94941.59;5067686;28;20254;-71
2022/11/15 06:48:24;;;;;;;;;;;;;;;8.44;50.50;94940.19;5087913;28;19973;-71
2022/11/15 06:50:52;;;;;;;;;;;;;;;8.49;50.04;94932.50;5068257;28;20010;-71
2022/11/15 06:53:18;;;;;;;;;;;;;;;8.48;50.24;94938.81;5085800;28;19984;-71
2022/11/15 06:55:43;;;;;;;;;;;;;;;8.41;50.59;94944.03;5086341;28;20458;-71
2022/11/15 06:58:08;;;;;;;;;;;;;;;8.11;51.32;94932.53;5084174;28;20430;-70
2022/11/15 07:00:33;;;;;;;;;;;;;;;8.46;50.27;94946.13;5085787;28;20041;-69
2022/11/15 07:03:02;;;;;;;;;;;;;;;8.32;51.07;94944.28;5086672;28;20343;-72
2022/11/15 07:05:27;;;;;;;;;;;;;;;8.17;51.32;94947.72;5086093;28;20434;-71
2022/11/15 07:07:53;;;;;;;;;;;;;;;8.27;51.48;94948.28;5086338;28;19976;-70
2022/11/15 07:10:18;;;;;;;;;;;;;;;8.62;50.91;94954.91;5085810;28;20022;-71
2022/11/15 07:12:46;;;;;;;;;;;;;;;8.47;51.52;94958.38;5068443;28;20386;-70
2022/11/15 07:15:11;;;;;;;;;;;;;;;8.66;50.96;94948.25;5086422;28;20623;-70
2022/11/15 07:17:36;;;;;;;;;;;;;;;8.88;50.72;94953.66;5085364;28;20004;-71
2022/11/15 07:20:02;;;;;;;;;;;;;;;8.04;53.05;94956.28;5087041;28;20410;-71
2022/11/15 07:22:27;;;;;;;;;;;;;;;8.60;51.41;94952.44;5086519;28;20457;-70
2022/11/15 07:24:52;;;;;;;;;;;;;;;8.70;51.19;94957.47;5087259;28;20415;-71
2022/11/15 07:27:17;;;;;;;;;;;;;;;6.65;57.96;94969.03;5085384;28;20371;-72
2022/11/15 07:29:43;;;;;;;;;;;;;;;7.21;56.13;94959.44;5085630;28;19999;-70
2022/11/15 07:32:09;;;;;;;;;;;;;;;8.36;52.83;94951.69;5080378;28;20433;-71
2022/11/15 07:34:34;;;;;;;;;;;;;;;7.60;53.24;94949.75;5080042;28;20360;-69
2022/11/15 07:36:59;;;;;;;;;;;;;;;7.09;55.20;94957.16;5083294;28;20000;-70
2022/11/15 07:39:24;;;;;;;;;;;;;;;8.12;52.89;94950.91;5085975;28;19972;-71
2022/11/15 07:42:52;;;;;;;;;;;;;;;8.26;51.58;94943.97;5080946;28;20379;-71
2022/11/15 07:44:35;;;;;;;;;;;;;;;8.29;51.37;94946.28;5084901;28;20006;-70
2022/11/15 07:47:00;;;;;;;;;;;;;;;7.53;54.30;94939.88;5082783;28;19985;-69
2022/11/15 07:49:25;;;;;;;;;;;;;;;8.26;51.55;94935.22;5084755;28;20075;-70
2022/11/15 07:51:50;;;;;;;;;;;;;;;8.52;49.42;94934.78;5079096;28;20053;-71
2022/11/15 07:54:16;;;;;;;;;;;;;;;8.03;50.27;94936.06;5080100;28;20004;-71
2022/11/15 07:56:41;;;;;;;;;;;;;;;7.46;53.17;94946.88;5065188;28;20457;-70
2022/11/15 07:59:06;;;;;;;;;;;;;;;7.70;53.20;94945.06;5078618;28;20007;-71
2022/11/15 08:01:32;;;;;;;;;;;;;;;8.74;49.12;94942.84;5080706;28;20018;-71
2022/11/15 08:03:57;;;;;;;;;;;;;;;8.85;50.33;94948.69;5086129;28;20049;-70
2022/11/15 08:06:22;;;;;;;;;;;;;;;8.88;48.79;94943.84;5082929;28;20011;-72
2022/11/15 08:08:48;;;;;;;;;;;;;;;9.12;47.21;94941.13;5081293;28;19973;-71
2022/11/15 08:11:13;;;;;;;;;;;;;;;9.41;46.89;94934.91;5086012;28;20087;-71
2022/11/15 08:13:38;;;;;;;;;;;;;;;9.45;47.68;94932.69;5085017;28;20066;-69
2022/11/15 08:16:05;;;;;;;;;;;;;;;9.42;47.22;94927.78;5086025;28;20045;-71
2022/11/15 08:18:30;;;;;;;;;;;;;;;9.14;49.11;94928.47;5078391;28;19988;-70
2022/11/15 08:20:58;;;;;;;;;;;;;;;8.88;49.47;94927.91;5077359;28;19965;-69
2022/11/15 08:23:23;;;;;;;;;;;;;;;9.04;50.15;94939.38;5063578;28;20299;-71
2022/11/15 08:25:48;;;;;;;;;;;;;;;9.51;48.09;94931.97;5065419;28;20463;-71
2022/11/15 08:28:15;;;;;;;;;;;;;;;9.81;45.94;94931.84;5086010;28;20749;-71
2022/11/15 08:30:41;;;;;;;;;;;;;;;9.64;46.57;94925.13;5084909;28;20394;-70
2022/11/15 08:33:09;;;;;;;;;;;;;;;9.83;45.82;94929.81;5078003;28;19993;-70
2022/11/15 08:35:34;;;;;;;;;;;;;;;10.19;45.32;94921.97;5066266;28;20549;-69
2022/11/15 08:37:59;;;;;;;;;;;;;;;10.22;45.00;94919.75;5087080;28;20092;-71
2022/11/15 08:40:26;;;;;;;;;;;;;;;10.09;45.40;94923.13;5091127;28;20008;-71
2022/11/15 08:42:51;;;;;;;;;;;;;;;10.31;46.18;94928.44;5082517;28;20449;-72
2022/11/15 08:45:17;;;;;;;;;;;;;;;10.43;44.34;94931.38;5083563;28;20019;-71
2022/11/15 08:47:42;;;;;;;;;;;;;;;10.19;45.61;94921.97;5086833;28;20348;-71
2022/11/15 08:50:07;;;;;;;;;;;;;;;9.97;47.46;94932.63;5088168;28;19996;-70
2022/11/15 08:52:33;;;;;;;;;;;;;;;10.30;46.17;94918.78;5086903;28;20310;-70
2022/11/15 08:54:58;;;;;;;;;;;;;;;10.56;46.11;94916.50;5088301;28;20346;-71
2022/11/15 08:57:23;;;;;;;;;;;;;;;10.64;44.18;94912.88;5086718;28;19995;-70
2022/11/15 08:59:48;;;;;;;;;;;;;;;10.72;44.01;94910.06;5050987;28;19969;-71
2022/11/15 09:02:14;;;;;;;;;;;;;;;10.73;44.72;94906.34;5085357;28;20000;-71
2022/11/15 09:04:42;;;;;;;;;;;;;;;10.08;47.29;94912.69;5070113;28;20071;-71
2022/11/15 09:07:09;;;;;;;;;;;;;;;10.09;46.84;94904.50;5085849;28;20652;-71
2022/11/15 09:09:34;;;;;;;;;;;;;;;10.28;45.40;94912.00;5061703;28;19984;-70
2022/11/15 09:11:59;;;;;;;;;;;;;;;10.38;45.89;94909.00;5086913;28;19979;-70
2022/11/15 09:14:24;;;;;;;;;;;;;;;10.70;44.78;94912.91;5081009;28;20048;-70
2022/11/15 09:16:49;;;;;;;;;;;;;;;10.98;44.47;94905.88;5087823;28;20187;-71
2022/11/15 09:19:15;;;;;;;;;;;;;;;10.05;46.37;94908.56;5083900;28;20539;-71
2022/11/15 09:21:40;;;;;;;;;;;;;;;9.75;47.42;94914.00;5085618;28;19985;-70
2022/11/15 09:24:05;;;;;;;;;;;;;;;10.38;45.79;94909.00;5087618;28;19989;-69
2022/11/15 09:26:30;;;;;;;;;;;;;;;9.13;50.35;94913.53;5085162;28;20412;-72
2022/11/15 09:28:56;;;;;;;;;;;;;;;8.57;52.20;94929.75;5066853;28;20580;-70
2022/11/15 09:31:21;;;;;;;;;;;;;;;9.97;48.52;94912.16;5085514;28;19968;-70
2022/11/15 09:33:46;;;;;;;;;;;;;;;9.93;48.26;94918.06;5084384;28;19988;-71
2022/11/15 09:36:11;;;;;;;;;;;;;;;10.12;47.80;94910.44;5086814;28;20404;-71
2022/11/15 09:38:37;;;;;;;;;;;;;;;10.54;46.99;94922.00;5084694;28;20390;-71
2022/11/15 09:41:13;;;;;;;;;;;;;;;9.52;49.04;94912.34;5085947;28;20049;-70
2022/11/15 09:44:07;;;;;;;;;;;;;;;10.41;47.44;94913.94;5067759;28;19994;-71
2022/11/15 09:46:42;;;;;;;;;;;;;;;10.74;46.63;94908.00;5063544;28;20583;-71
2022/11/15 09:49:07;;;;;;;;;;;;;;;10.90;46.03;94906.03;5084656;28;20095;-70
2022/11/15 09:51:36;;;;;;;;;;;;;;;10.28;47.43;94898.72;5064741;28;20033;-70
2022/11/15 09:54:07;;;;;;;;;;;;;;;10.45;47.35;94901.91;5089079;28;20481;-70
2022/11/15 09:56:35;;;;;;;;;;;;;;;10.93;45.98;94890.50;5086426;28;20409;-71
2022/11/15 09:59:19;;;;;;;;;;;;;;;11.16;45.27;94881.41;5087060;28;19991;-70
2022/11/15 10:01:56;;;;;;;;;;;;;;;11.07;45.21;94888.72;5084559;28;20520;-69
2022/11/15 10:04:22;;;;;;;;;;;;;;;11.23;44.82;94879.59;5084514;28;19999;-71
2022/11/15 10:06:53;;;;;;;;;;;;;;;11.18;45.33;94881.19;5053285;28;19989;-70
2022/11/15 10:09:30;;;;;;;;;;;;;;;9.72;48.57;94890.44;5085681;28;20001;-70
2022/11/15 10:11:55;;;;;;;;;;;;;;;10.54;46.67;94878.63;5066092;28;19968;-71
2022/11/15 10:14:21;;;;;;;;;;;;;;;10.51;46.32;94885.16;5064451;28;20349;-71
2022/11/15 10:17:25;;;;;;;;;;;;;;;9.48;48.68;94879.19;5064557;28;20093;-70
2022/11/15 10:19:54;;;;;;;;;;;;;;;10.41;46.77;94882.03;4981137;28;19973;-71
2022/11/15 10:22:29;;;;;;;;;;;;;;;10.89;45.72;94873.28;4995523;28;20588;-69
2022/11/15 10:25:20;;;;;;;;;;;;;;;10.08;46.75;94878.94;5028268;28;20320;-69
2022/11/15 10:28:06;;;;;;;;;;;;;;;10.26;47.02;94876.81;5076123;28;19964;-71
2022/11/15 10:30:32;;;;;;;;;;;;;;;10.27;47.12;94873.94;5053971;28;20024;-70
2022/11/15 10:32:57;;;;;;;;;;;;;;;11.04;45.70;94858.97;5082479;28;19976;-71
2022/11/15 10:35:24;;;;;;;;;;;;;;;11.54;44.42;94855.22;5062505;28;19976;-71
2022/11/15 10:37:49;;;;;;;;;;;;;;;11.64;44.16;94853.00;5083069;28;20290;-70
2022/11/15 10:40:16;;;;;;;;;;;;;;;11.90;43.10;94849.53;5081025;28;20633;-71
2022/11/15 10:42:41;;;;;;;;;;;;;;;11.72;43.40;94846.63;5083769;28;20000;-69
2022/11/15 10:45:33;;;;;;;;;;;;;;;11.80;43.43;94840.28;5080152;28;20425;-70
2022/11/15 10:48:13;;;;;;;;;;;;;;;12.34;41.94;94834.94;5077192;28;19973;-70
2022/11/15 10:50:42;;;;;;;;;;;;;;;12.72;41.62;94828.06;5077009;28;20281;-71
2022/11/15 10:53:21;;;;;;;;;;;;;;;12.19;42.56;94821.81;5063636;28;20003;-70
2022/11/15 10:55:47;;;;;;;;;;;;;;;12.81;41.45;94818.78;5081409;28;19991;-70
2022/11/15 10:58:30;;;;;;;;;;;;;;;12.64;41.18;94813.91;5083648;28;20315;-70
2022/11/15 11:00:56;;;;;;;;;;;;;;;12.19;41.95;94824.50;5085119;28;20067;-70
2022/11/15 11:03:38;;;;;;;;;;;;;;;11.72;43.54;94815.47;5061159;28;20581;-69
2022/11/15 11:06:06;;;;;;;;;;;;;;;12.13;42.86;94810.97;5081900;28;20031;-70
2022/11/15 11:08:31;;;;;;;;;;;;;;;11.68;42.69;94805.41;5085093;28;21073;-70
2022/11/15 11:10:57;;;;;;;;;;;;;;;12.82;40.90;94799.06;5050194;28;20014;-71
2022/11/15 11:13:24;;;;;;;;;;;;;;;13.44;40.06;94798.53;5049341;28;20084;-71
2022/11/15 11:15:52;;;;;;;;;;;;;;;13.40;39.53;94797.31;5064586;28;19975;-70
2022/11/15 11:18:20;;;;;;;;;;;;;;;12.97;39.70;94795.28;5062393;28;20041;-71
2022/11/15 11:20:46;;;;;;;;;;;;;;;12.71;40.25;94791.72;5067990;28;20231;-71
2022/11/15 11:23:12;;;;;;;;;;;;;;;13.12;39.30;94785.16;5067074;28;20496;-70
2022/11/15 11:25:56;;;;;;;;;;;;;;;13.39;38.40;94785.00;5082200;28;19992;-70
2022/11/15 11:28:24;;;;;;;;;;;;;;;12.14;41.03;94777.91;5084518;28;19982;-70
2022/11/15 11:31:07;;;;;;;;;;;;;;;13.42;38.61;94779.22;5085013;28;19988;-70
2022/11/15 11:33:44;;;;;;;;;;;;;;;14.03;36.92;94778.75;5078518;28;20620;-71
2022/11/15 11:36:25;;;;;;;;;;;;;;;13.87;37.25;94769.38;5064953;28;19972;-71
2022/11/15 11:39:09;;;;;;;;;;;;;;;14.30;36.66;94769.63;5064458;28;20237;-71
2022/11/15 11:41:40;;;;;;;;;;;;;;;14.61;35.72;94764.34;5073940;28;19984;-71
2022/11/15 11:44:16;;;;;;;;;;;;;;;14.83;35.66;94754.00;5085625;28;20074;-72
2022/11/15 11:46:51;;;;;;;;;;;;;;;15.12;35.11;94756.09;5045997;28;20020;-71
2022/11/15 11:49:46;;;;;;;;;;;;;;;16.21;33.35;94748.78;5085538;28;20000;-71
2022/11/15 11:52:30;;;;;;;;;;;;;;;16.32;32.03;94743.63;5063202;28;20488;-70
2022/11/15 11:55:01;;;;;;;;;;;;;;;18.59;28.20;94744.25;5089580;28;20027;-71
2022/11/15 11:57:34;;;;;;;;;;;;;;;20.60;26.78;94738.13;5085197;28;19993;-71
2022/11/15 12:00:04;;;;;;;;;;;;;;;22.15;23.77;94729.44;5048152;28;20342;-70
2022/11/15 12:02:37;;;;;;;;;;;;;;;23.69;21.60;94727.31;5065313;28;19990;-71
2022/11/15 12:05:13;;;;;;;;;;;;;;;25.88;20.38;94727.44;5079823;28;20471;-72
2022/11/15 12:07:39;;;;;;;;;;;;;;;27.39;17.62;94723.41;5066632;28;19960;-73
2022/11/15 12:10:07;;;;;;;;;;;;;;;27.08;17.75;94724.06;5053081;28;19972;-70
2022/11/15 12:12:51;;;;;;;;;;;;;;;26.67;16.83;94720.31;5083928;28;19966;-72
2022/11/15 12:15:18;;;;;;;;;;;;;;;25.78;19.07;94717.50;5087875;28;20013;-70
2022/11/15 12:17:43;;;;;;;;;;;;;;;25.12;18.15;94713.56;5068225;28;20420;-71
2022/11/15 12:20:19;;;;;;;;;;;;;;;24.41;20.40;94714.19;5088390;28;19955;-70
2022/11/15 12:22:46;;;;;;;;;;;;;;;25.48;19.18;94715.00;5082894;28;20028;-71
2022/11/15 12:25:30;;;;;;;;;;;;;;;25.45;19.04;94715.56;5085032;28;20380;-73
2022/11/15 12:28:07;;;;;;;;;;;;;;;24.79;19.73;94708.03;5084629;28;20332;-69
2022/11/15 12:30:44;;;;;;;;;;;;;;;23.54;20.79;94704.66;5085478;28;19988;-79
2022/11/15 12:33:28;;;;;;;;;;;;;;;22.63;21.91;94709.25;5089022;28;19962;-77
2022/11/15 12:35:57;;;;;;;;;;;;;;;21.73;23.17;94720.53;5072283;28;19973;-78
2022/11/15 12:38:42;;;;;;;;;;;;;;;22.98;22.15;94703.91;5089249;28;19974;-78
2022/11/15 12:41:13;;;;;;;;;;;;;;;19.18;26.14;94708.47;5087475;28;19992;-79
2022/11/15 12:43:39;;;;;;;;;;;;;;;19.46;26.31;94703.09;5091626;28;19954;-79
2022/11/15 12:46:05;;;;;;;;;;;;;;;15.67;31.90;94720.19;5054939;28;19990;-77
2022/11/15 12:48:37;;;;;;;;;;;;;;;16.30;31.56;94703.56;5067748;28;19961;-77
2022/11/15 12:51:02;;;;;;;;;;;;;;;17.03;30.46;94700.41;5085519;28;20369;-77
2022/11/15 12:53:31;;;;;;;;;;;;;;;17.12;30.45;94692.81;5071224;28;20214;-77
2022/11/15 12:56:17;;;;;;;;;;;;;;;16.61;31.05;94692.66;5087027;28;20045;-77
2022/11/15 12:58:47;;;;;;;;;;;;;;;16.75;31.21;94688.63;5070391;28;20032;-77
2022/11/15 13:01:30;;;;;;;;;;;;;;;16.33;31.90;94683.47;5069615;28;20018;-77
2022/11/15 13:04:14;;;;;;;;;;;;;;;15.26;34.15;94678.97;5086070;28;19962;-77
2022/11/15 13:06:41;;;;;;;;;;;;;;;14.56;35.63;94661.41;5084523;28;20369;-76
2022/11/15 13:09:26;;;;;;;;;;;;;;;14.73;35.13;94663.44;5084347;28;20379;-77
2022/11/15 13:11:51;;;;;;;;;;;;;;;14.70;35.67;94654.00;5089084;28;20521;-78